Tiempo atmosférico en la estación meteorológica de Soba, Alto Miera, Cantabria (695 m.)



Fecha
DESCASC
Temp. máxima en grados centígrados (hora)
DESCASC
Temp. mínima en grados centígrados (hora)
DESCASC
Temp. media en grados centígrados
DESCASC
Racha de viento máxima en m/sg (hora)
DESCASC
Velocidad máxima media en intervalos de 10 minutos(hora)
DESCASC
Precipitaciones diarias en mm
DESCASC
Precipitaciones de 00:00 a 06:00 en mm
DESCASC
Precipitaciones de 06:00 a 12:00 en mm
DESCASC
Precipitaciones de 12:00 a 18:00 en mm
DESCASC
Precipitaciones de 18:00 a 24:00 en mm
DESCASC
23-06-2019 25.1 (03:00) 14.7 (23:59) 19.9 11.11 (12:50) 5 (12:50) 0 0 0 0 0
22-06-2019 27.2 (18:00) 8.8 (03:10) 18 8.06 (23:59) 2.78 (18:30) 0 0 0 0 0
21-06-2019 16.7 (18:10) 10.2 (08:10) 13.5 5.28 (18:10) 3.33 (18:10) 4 3.8 0 0.2 0
20-06-2019 13.7 (15:40) 11.7 (00:00) 12.7 4.72 (17:50) 2.5 (17:50) 4.8 0.2 3 1.4 0.2
19-06-2019 19.2 (01:00) 12.6 (00:00) 15.9 -- (--) -- (--) -- -- 0 -- 1.2
18-06-2019 27.4 (16:30) 13.7 (00:00) 20.5 13.33 (09:50) 6.94 (09:50) 0 0 0 0 0
17-06-2019 27.7 (16:00) 10.8 (00:00) 19.3 7.5 (16:50) 4.17 (16:50) 0 0 0 0 0
16-06-2019 22.2 (16:30) 7.1 (00:00) 14.7 6.11 (17:40) 3.61 (17:20) 0 0 0 0 0
15-06-2019 16.7 (13:40) 8 (00:00) 12.4 7.22 (16:10) 4.17 (16:20) 0.2 0 0.2 0 0
14-06-2019 12.3 (12:20) 6 (00:00) 9.2 3.89 (18:30) 2.22 (18:40) 0.8 0 0 0.4 0.4
13-06-2019 15.8 (14:30) 5.3 (00:00) 10.6 5.83 (14:50) 3.89 (14:40) 1 0 0 0 1
12-06-2019 13.6 (14:30) 7.6 (00:00) 10.6 8.61 (04:10) 4.17 (09:20) 0 0 0 0 0
11-06-2019 9.6 (17:50) 5.3 (00:00) 7.5 11.39 (07:10) 5.28 (15:50) 32.8 9.4 13.4 7 3
10-06-2019 13 (14:50) 4.8 (00:00) 8.9 5.56 (16:10) 3.33 (16:10) 3.6 0.2 0 0 3.4
09-06-2019 11.5 (12:30) 8 (00:00) 9.8 6.11 (18:30) 3.33 (18:30) 4 0 0 1.8 2.2
08-06-2019 17 (14:40) 7 (00:00) 12 6.94 (16:40) 3.33 (15:10) 0.4 0 0 0 0.4
07-06-2019 13.4 (11:20) 8.4 (00:00) 10.9 20.83 (00:40) 8.61 (01:00) 1 0.8 0 0.2 0
06-06-2019 20.2 (19:30) 5.4 (00:00) 12.8 21.11 (23:50) 8.33 (23:50) 1 0.2 0 0 0.8
05-06-2019 11.8 (16:00) 7.5 (00:00) 9.7 10.28 (11:00) 5 (11:00) 24.8 14.2 8.8 1.8 0
04-06-2019 21.7 (14:30) 8.7 (00:00) 15.2 10.83 (15:20) 5 (14:40) 4.8 0 0 0.8 4
03-06-2019 21.1 (15:30) 12.1 (00:00) 16.6 5.56 (15:40) 2.78 (15:20) 0 0 0 0 0
02-06-2019 25.2 (13:00) 13.1 (00:00) 19.2 6.11 (13:50) 3.61 (13:10) 0 0 0 0 0
01-06-2019 29.9 (15:30) 16.6 (00:00) 23.3 5.28 (17:10) 3.61 (18:00) 0 0 0 0 0
31-05-2019 27.3 (18:20) 13.2 (00:00) 20.2 5 (16:30) 2.78 (17:00) 0 0 0 0 0
30-05-2019 24.7 (16:20) 9.2 (00:00) 17 5.83 (18:30) 3.33 (18:10) 0 0 0 0 0
29-05-2019 17.1 (17:20) 8 (00:00) 12.6 5.56 (02:20) 2.78 (01:40) 2.8 0.2 2.6 0 0
28-05-2019 11.8 (17:20) 7.7 (00:00) 9.8 9.17 (18:10) 5.28 (08:20) 0.4 0.2 0.2 0 0
27-05-2019 12.6 (14:00) 7.7 (00:00) 10.2 8.33 (18:40) 4.44 (18:40) 7.2 0 0.8 4.4 2

Gráficas

Temp. máximas Temp. mínimas Temp. medias Precipitaciones Rachas de viento máximas Velocidades máximas media en intervalos de 10 minutos

Datos horarios

Fecha y hora oficial Temperatura (ºC) Velocidad del viento (km/h) Dirección del viento Racha (km/h) Dirección de racha Precipitación (mm) Presión (hPa) Tendencia (hPa) Humedad (%)
2019-06-25 23:00:00 15.3 3 Norte 8 Norte 0 -- -- 100
2019-06-25 22:00:00 15.4 3 Noroeste 8 Noroeste 0.2 -- -- 100
2019-06-25 21:00:00 15.6 2 Noroeste 8 Noroeste 0 -- -- 100
2019-06-25 20:00:00 15.7 6 Norte 11 Noroeste 0 -- -- 100
2019-06-25 19:00:00 16.1 4 Noroeste 10 Norte 0 -- -- 100
2019-06-25 18:00:00 16.5 5 Noroeste 13 Noroeste 0 -- -- 98
2019-06-25 17:00:00 17.4 4 Noroeste 12 Noroeste 0 -- -- 97
2019-06-25 16:00:00 17.6 7 Noroeste 13 Noroeste 0.2 -- -- 95
2019-06-25 15:00:00 20.1 9 Noroeste 17 Noroeste 0 -- -- 88
2019-06-25 14:00:00 20.4 7 Noroeste 18 Noroeste 0 -- -- 83
2019-06-25 13:00:00 19.4 8 Noroeste 16 Noroeste 0 -- -- 87
2019-06-25 12:00:00 19 9 Noroeste 14 Oeste 0 -- -- 83
2019-06-25 11:00:00 18.3 6 Noroeste 12 Noroeste 0 -- -- 87
2019-06-25 10:00:00 17.3 4 Noroeste 11 Norte 0 -- -- 83
2019-06-25 09:00:00 15.3 4 Noroeste 12 Norte 0 -- -- 87
2019-06-25 08:00:00 14.8 2 Sur 5 Norte 0 -- -- 87
2019-06-25 07:00:00 14.9 2 Norte 6 Sudeste 0 -- -- 86
2019-06-25 06:00:00 14.9 2 Este 6 Sur 0 -- -- 85
2019-06-25 05:00:00 14.4 2 Sudeste 6 Sur 0 -- -- 88
2019-06-25 04:00:00 14.6 0 Calma 6 Sur 0 -- -- 86
2019-06-25 03:00:00 14.6 4 Este 10 Sudeste 0 -- -- 87
2019-06-25 02:00:00 14.9 0 Calma 9 Sur 0 -- -- 86
2019-06-25 01:00:00 14.6 4 Sudeste 6 Sur 0 -- -- 87
2019-06-25 00:00:00 14.6 2 Este 7 Este 0 -- -- 89
2019-06-24 23:00:00 15 6 Sudeste 15 Sudeste 0 -- -- 86
2019-06-24 22:00:00 15.1 0 Calma 9 Sudeste 0 -- -- 90
2019-06-24 21:00:00 16.1 2 Sudeste 9 Este 0 -- -- 89
2019-06-24 20:00:00 15.9 3 Sur 12 Norte 0 -- -- 89
2019-06-24 19:00:00 15.4 9 Noroeste 17 Noroeste 0.2 -- -- 98
2019-06-24 18:00:00 14.7 4 Norte 16 Norte 0.2 -- -- 100
2019-06-24 17:00:00 15.1 9 Norte 21 Norte 0 -- -- 99
2019-06-24 16:00:00 18.9 12 Norte 19 Noroeste 0 -- -- 89
2019-06-24 15:00:00 20.2 5 Noroeste 17 Noroeste 0 -- -- 82
2019-06-24 14:00:00 19.7 8 Noroeste 14 Noroeste 0 -- -- 79
2019-06-24 13:00:00 17.5 4 Noroeste 8 Noroeste 0 -- -- 90
2019-06-24 12:00:00 16.2 3 Oeste 13 Norte 0 -- -- 94
2019-06-24 11:00:00 16.1 2 Norte 12 Noroeste 0 -- -- 92
2019-06-24 10:00:00 15.3 3 Noroeste 6 Sudoeste 0 -- -- 96
2019-06-24 09:00:00 14.5 0 Calma 7 Oeste 0 -- -- 98
2019-06-24 08:00:00 14 0 Calma 9 Este 0 -- -- 99
2019-06-24 07:00:00 13.6 3 Este 7 Noroeste 0 -- -- 100
2019-06-24 06:00:00 13.8 3 Norte 8 Noroeste 0 -- -- 100
2019-06-24 05:00:00 14 3 Sur 7 Este 0 -- -- 99
2019-06-24 04:00:00 14.2 0 Calma 6 Sudeste 0.2 -- -- 98
2019-06-24 03:00:00 14.3 0 Calma 6 Noroeste 0 -- -- 99
2019-06-24 02:00:00 14.3 2 Nordeste 6 Norte 0 -- -- 99
2019-06-24 01:00:00 14.4 0 Calma 9 Sur 0 -- -- 98
2019-06-24 00:00:00 14.7 3 Sur 11 Norte 0 -- -- 96
2019-06-23 23:00:00 15.5 0 Calma 7 Sudeste 0 -- -- 86
2019-06-23 22:00:00 15.4 4 Noroeste 9 Sudeste 0 -- -- 95
2019-06-23 21:00:00 16.3 5 Noroeste 8 Noroeste 0 -- -- 91
2019-06-23 20:00:00 17.6 3 Noroeste 9 Noroeste 0 -- -- 86
2019-06-23 19:00:00 19.2 4 Noroeste 12 Noroeste 0 -- -- 80
2019-06-23 18:00:00 20.8 2 Noroeste 9 Noroeste 0 -- -- 77
2019-06-23 17:00:00 20.6 3 Norte 17 Noroeste 0 -- -- 72
2019-06-23 16:00:00 22.1 6 Noroeste 23 Noroeste 0 -- -- 69
2019-06-23 15:00:00 21.8 10 Noroeste 21 Noroeste 0 -- -- 64
2019-06-23 14:00:00 22.6 12 Noroeste 34 Sudeste 0 -- -- 58
2019-06-23 13:00:00 23.8 6 Sudeste 40 Sudeste 0 -- -- 47
2019-06-23 12:00:00 22.9 9 Sudeste 29 Sudeste 0 -- -- 34
2019-06-23 11:00:00 21.5 3 Nordeste 22 Sudeste 0 -- -- 33
2019-06-23 10:00:00 18.4 5 Sudeste 14 Sudeste 0 -- -- 61
2019-06-23 09:00:00 15.4 6 Sudeste 12 Sudeste 0 -- -- 80
2019-06-23 08:00:00 15.9 4 Norte 29 Norte 0 -- -- 76
2019-06-23 07:00:00 22.1 13 Norte 33 Sudeste 0 -- -- 44
2019-06-23 06:00:00 24.7 8 Sudeste 27 Noroeste 0 -- -- 28
2019-06-23 05:00:00 22.2 5 Sudeste 21 Norte 0 -- -- 36
2019-06-23 04:00:00 22.4 4 Este 16 Sudeste 0 -- -- 42
2019-06-23 03:00:00 25.1 11 Sudeste 28 Este 0 -- -- 37
2019-06-23 02:00:00 24.6 10 Sudeste 30 Sudeste 0 -- -- 43
2019-06-23 01:00:00 24.3 15 Sudeste 30 Este 0 -- -- 44
2019-06-23 00:00:00 23.7 10 Sudeste 29 Sudeste 0 -- -- 45
2019-06-22 23:00:00 19.7 3 Sudeste 8 Sudeste 0 -- -- 54
2019-06-22 22:00:00 19 0 Calma 7 Sudeste 0 -- -- 68
2019-06-22 21:00:00 21.2 0 Calma 6 Sudeste 0 -- -- 78
2019-06-22 20:00:00 24.5 0 Calma 9 Noroeste 0 -- -- 64
2019-06-22 19:00:00 24.5 7 Noroeste 17 Norte 0 -- -- 60
2019-06-22 18:00:00 27.2 2 Oeste 13 Noroeste 0 -- -- 35
2019-06-22 17:00:00 25.5 5 Norte 16 Oeste 0 -- -- 42
2019-06-22 16:00:00 25.3 6 Sudeste 15 Sudeste 0 -- -- 47
2019-06-22 15:00:00 24.6 4 Sur 14 Sudeste 0 -- -- 44
2019-06-22 14:00:00 24.1 4 Sur 18 Sudeste 0 -- -- 42
2019-06-22 13:00:00 23 7 Sudeste 19 Sudeste 0 -- -- 41
2019-06-22 12:00:00 22.7 8 Sudeste 22 Sudeste 0 -- -- 44
2019-06-22 11:00:00 21.2 8 Sudeste 16 Sudoeste 0 -- -- 46
2019-06-22 10:00:00 20 5 Sudeste 24 Sudeste 0 -- -- 48
2019-06-22 09:00:00 17 5 Sudeste 12 Este 0 -- -- 64
2019-06-22 08:00:00 14.4 4 Este 9 Sur 0 -- -- 68
2019-06-22 07:00:00 12.8 2 Nordeste 6 Sudeste 0 -- -- 71
2019-06-22 06:00:00 11.2 3 Sudeste 8 Este 0 -- -- 78
2019-06-22 05:00:00 10.7 2 Nordeste 7 Sur 0 -- -- 79
2019-06-22 04:00:00 9.4 2 Sudeste 6 Sur 0 -- -- 89
2019-06-22 03:00:00 9 2 Sudeste 5 Sur 0 -- -- 96
2019-06-22 02:00:00 8.9 3 Sudeste 8 Sur 0 -- -- 98
2019-06-22 01:00:00 9.9 2 Sur 6 Sudeste 0 -- -- 96
2019-06-22 00:00:00 11.5 0 Calma 3 Oeste 0 -- -- 94
2019-06-21 23:00:00 12.1 2 Oeste 4 Oeste 0 -- -- 97
2019-06-21 22:00:00 12.5 2 Noroeste 11 Noroeste 0 -- -- 95
2019-06-21 21:00:00 13.5 8 Noroeste 15 Noroeste 0 -- -- 91
2019-06-21 20:00:00 15.7 7 Noroeste 13 Noroeste 0 -- -- 82
2019-06-21 19:00:00 15.1 7 Noroeste 19 Norte 0 -- -- 85
2019-06-21 18:00:00 16.6 10 Noroeste 17 Noroeste 0 -- -- 84
2019-06-21 17:00:00 15.3 9 Noroeste 15 Noroeste 0 -- -- 85
2019-06-21 16:00:00 14.3 6 Noroeste 13 Noroeste 0 -- -- 88
2019-06-21 15:00:00 13.9 4 Noroeste 7 Noroeste 0 -- -- 89
2019-06-21 14:00:00 12.5 3 Noroeste 9 Norte 0 -- -- 93
2019-06-21 13:00:00 11.8 4 Noroeste 10 Noroeste 0.2 -- -- 100
2019-06-21 12:00:00 11 8 Noroeste 15 Noroeste 0 -- -- 100
2019-06-21 11:00:00 10.8 3 Norte 14 Noroeste 0 -- -- 100
2019-06-21 10:00:00 11 3 Norte 12 Noroeste 0 -- -- 100
2019-06-21 09:00:00 10.4 6 Norte 15 Noroeste 0 -- -- 100
2019-06-21 08:00:00 10.3 8 Noroeste 14 Noroeste 0 -- -- 100
2019-06-21 07:00:00 10.4 6 Noroeste 13 Noroeste 0 -- -- 100
2019-06-21 06:00:00 10.8 7 Noroeste 13 Noroeste 0 -- -- 100
2019-06-21 05:00:00 11 5 Noroeste 10 Noroeste 0.2 -- -- 100
2019-06-21 04:00:00 11.4 2 Norte 6 Noroeste 0.4 -- -- 100
2019-06-21 03:00:00 11.4 2 Norte 3 Norte 1.4 -- -- 100
2019-06-21 02:00:00 11.6 0 Calma 4 Oeste 1.2 -- -- 100
2019-06-21 01:00:00 11.7 0 Calma 5 Norte 0.6 -- -- 100
2019-06-21 00:00:00 11.8 2 Noroeste 7 Norte 0.2 -- -- 100
2019-06-20 23:00:00 11.7 4 Norte 12 Noroeste 0 -- -- 100
2019-06-20 22:00:00 12 6 Noroeste 14 Noroeste 0 -- -- 100
2019-06-20 21:00:00 12.4 8 Noroeste 13 Norte 0 -- -- 98
2019-06-20 20:00:00 12.7 4 Oeste 16 Noroeste 0 -- -- 100
2019-06-20 19:00:00 12.7 8 Noroeste 16 Noroeste 0 -- -- 99
2019-06-20 18:00:00 13.3 7 Noroeste 17 Noroeste 0.2 -- -- 99
2019-06-20 17:00:00 13.3 8 Noroeste 15 Noroeste 0 -- -- 99
2019-06-20 16:00:00 13.4 8 Noroeste 14 Noroeste 0.2 -- -- 99
2019-06-20 15:00:00 13.4 6 Noroeste 13 Noroeste 0 -- -- 100
2019-06-20 14:00:00 13.2 5 Norte 11 Noroeste 0.6 -- -- 100
2019-06-20 13:00:00 13.3 5 Noroeste 11 Noroeste 0.4 -- -- 99
2019-06-20 12:00:00 12.8 4 Norte 12 Noroeste 0.8 -- -- 100
2019-06-20 11:00:00 12.8 5 Noroeste 9 Noroeste 1 -- -- 100
2019-06-20 10:00:00 12.5 3 Noroeste 8 Norte 0.2 -- -- 100
2019-06-20 09:00:00 12.3 4 Noroeste 8 Noroeste 0.4 -- -- 100
2019-06-20 08:00:00 12.1 5 Noroeste 9 Noroeste 0.2 -- -- 100
2019-06-20 07:00:00 12 4 Noroeste 9 Noroeste 0.4 -- -- 100
2019-06-20 06:00:00 12.1 4 Noroeste 6 Noroeste 0.2 -- -- 100
2019-06-20 05:00:00 12.3 3 Noroeste 4 Noroeste 0 -- -- 100
2019-06-20 04:00:00 12.3 2 Noroeste 6 Norte 0 -- -- 100
2019-06-20 03:00:00 12.5 0 Calma 3 Noroeste 0 -- -- 100
2019-06-20 02:00:00 12.5 0 Calma 3 Noroeste 0 -- -- 99
2019-06-20 01:00:00 12.6 0 Calma 4 Norte 0 -- -- 99
2019-06-20 00:00:00 12.6 2 Norte 4 Norte 0.2 -- -- 99
2019-06-19 23:00:00 12.6 2 Noroeste 4 Noroeste 0 -- -- 99
2019-06-19 22:00:00 12.7 0 Calma 3 Norte 0 -- -- 100
2019-06-19 21:00:00 12.6 3 Norte 12 Noroeste 0.4 -- -- 100
2019-06-19 20:00:00 12.8 5 Noroeste 11 Noroeste 0.4 -- -- 100
2019-06-19 19:00:00 13 7 Noroeste 15 Noroeste 0.2 -- -- 99
2019-06-19 18:00:00 13.6 8 Noroeste 14 Noroeste 0 -- -- 98
2019-06-19 17:00:00 14.5 9 Noroeste 15 Noroeste 0 -- -- 95
2019-06-19 16:00:00 16.1 8 Noroeste 21 Noroeste 0 -- -- 90
2019-06-19 15:00:00 18.4 9 Noroeste -- -- -- -- -- 82
2019-06-19 14:00:00 19 12 Noroeste 21 Noroeste 0 -- -- 79
2019-06-19 13:00:00 18.8 9 Noroeste 14 Noroeste 0 -- -- 76
2019-06-19 12:00:00 17.3 5 Noroeste 22 Norte 0 -- -- 81
2019-06-19 11:00:00 17.8 9 Norte 17 Norte 0 -- -- 73
2019-06-19 10:00:00 18.3 6 Sudeste 15 Sur 0 -- -- 69
2019-06-19 09:00:00 18.1 4 Noroeste 24 Sur 0 -- -- 67
2019-06-19 08:00:00 17.4 3 Sur 10 Sudeste 0 -- -- 66
2019-06-19 07:00:00 16.3 7 Sudeste 13 Sudeste 0 -- -- 70
2019-06-19 06:00:00 17.1 8 Sudeste 21 Este 0 -- -- 67
2019-06-19 05:00:00 18.5 10 Sudeste 50 Sudeste 0 -- -- 60
2019-06-19 04:00:00 18.9 19 Sudeste 51 Sur 0 -- -- 58
2019-06-19 03:00:00 18.9 -- -- -- -- -- -- -- --
2019-06-19 02:00:00 19 13 Sudeste 29 Sur 0 -- -- 60
2019-06-19 01:00:00 19.2 15 Sudeste 33 Sudeste 0 -- -- 58
2019-06-19 00:00:00 13.7 2 Sudoeste 9 Este 0 -- -- 80
2019-06-18 23:00:00 15.2 2 Nordeste 30 Sudeste 0 -- -- 72
2019-06-18 22:00:00 19.2 9 Este 25 Sudeste 0 -- -- 56
2019-06-18 21:00:00 20.3 8 Sudeste 18 Noroeste 0 -- -- 62
2019-06-18 20:00:00 21.5 9 Noroeste 18 Noroeste 0 -- -- 57
2019-06-18 19:00:00 21.3 7 Noroeste 35 Noroeste 0 -- -- 58
2019-06-18 18:00:00 22.7 15 Noroeste 48 Sudeste 0 -- -- 64
2019-06-18 17:00:00 27.1 16 Sudeste 44 Este 0 -- -- 23
2019-06-18 16:00:00 27.1 12 Sudeste 40 Sudeste 0 -- -- 24
2019-06-18 15:00:00 26.4 11 Sudeste 34 Sudeste 0 -- -- 23
2019-06-18 14:00:00 25.7 13 Sudoeste 38 Noroeste 0 -- -- 29
2019-06-18 13:00:00 24.9 16 Sudeste 38 Este 0 -- -- 28
2019-06-18 12:00:00 24.2 12 Sur 45 Sudeste 0 -- -- 31
2019-06-18 11:00:00 24.2 6 Nordeste 37 Sudeste 0 -- -- 30
2019-06-18 10:00:00 23.3 22 Sudeste 48 Sudeste 0 -- -- 31
2019-06-18 09:00:00 22.4 19 Sudeste 39 Sudeste 0 -- -- 31
2019-06-18 08:00:00 18.6 6 Este 12 Este 0 -- -- 51
2019-06-18 07:00:00 17.3 5 Sudeste 13 Este 0 -- -- 47
2019-06-18 06:00:00 15.2 4 Sudeste 12 Sudeste 0 -- -- 56
2019-06-18 05:00:00 16.2 2 Sudeste 14 Sur 0 -- -- 50
2019-06-18 04:00:00 18 7 Sudeste 17 Este 0 -- -- 46
2019-06-18 03:00:00 16.1 5 Sudeste 12 Este 0 -- -- 61
2019-06-18 02:00:00 15 4 Norte 14 Sudeste 0 -- -- 92
2019-06-18 01:00:00 14.9 5 Norte 12 Sudeste 0 -- -- 94
2019-06-18 00:00:00 14 5 Este 8 Este 0 -- -- 100
2019-06-17 23:00:00 14 5 Sudeste 15 Norte 0 -- -- 100
2019-06-17 22:00:00 13.8 3 Norte 10 Noroeste 0 -- -- 99
2019-06-17 21:00:00 14.4 2 Noroeste 11 Noroeste 0 -- -- 98
2019-06-17 20:00:00 15.5 2 Noroeste 13 Noroeste 0 -- -- 95
2019-06-17 19:00:00 18.4 4 Noroeste 14 Noroeste 0 -- -- 88
2019-06-17 18:00:00 21.7 6 Noroeste 19 Noroeste 0 -- -- 80
2019-06-17 17:00:00 23.2 12 Noroeste 27 Noroeste 0 -- -- 76
2019-06-17 16:00:00 27.7 4 Sur 26 Sudeste 0 -- -- 31
2019-06-17 15:00:00 27.2 3 Sur 17 Sur 0 -- -- 36
2019-06-17 14:00:00 25.9 6 Sudeste 27 Sudeste 0 -- -- 37
2019-06-17 13:00:00 25.4 9 Sudoeste 22 Sudoeste 0 -- -- 35
2019-06-17 12:00:00 22.3 7 Noroeste 14 Norte 0 -- -- 63
2019-06-17 11:00:00 20.9 3 Noroeste 6 Oeste 0 -- -- 64
2019-06-17 10:00:00 18.8 0 Calma 3 Noroeste 0 -- -- 66
2019-06-17 09:00:00 14 0 Calma 4 Sudeste 0 -- -- 79
2019-06-17 08:00:00 11.6 0 Calma 8 Sur 0 -- -- 90
2019-06-17 07:00:00 10.8 0 Calma 7 Sur 0 -- -- 92
2019-06-17 06:00:00 10.9 0 Calma 9 Sudeste 0 -- -- 96
2019-06-17 05:00:00 11 3 Sudeste 6 Sudeste 0 -- -- 98
2019-06-17 04:00:00 11.5 0 Calma 8 Sur 0 -- -- 96
2019-06-17 03:00:00 12.8 3 Sur 6 Sur 0 -- -- 98
2019-06-17 02:00:00 13.1 0 Calma 4 Noroeste 0 -- -- 100
2019-06-17 01:00:00 13.2 0 Calma 4 Noroeste 0 -- -- 100
2019-06-17 00:00:00 13.4 3 Noroeste 6 Norte 0 -- -- 99
2019-06-16 23:00:00 13.6 5 Norte 11 Noroeste 0 -- -- 98
2019-06-16 22:00:00 14.4 4 Noroeste 9 Noroeste 0 -- -- 96
2019-06-16 21:00:00 14.9 4 Noroeste 14 Noroeste 0 -- -- 94
2019-06-16 20:00:00 15.6 8 Noroeste 16 Oeste 0 -- -- 92
2019-06-16 19:00:00 17.2 10 Noroeste 19 Noroeste 0 -- -- 86
2019-06-16 18:00:00 21 10 Noroeste 22 Noroeste 0 -- -- 76
2019-06-16 17:00:00 21.8 12 Noroeste 20 Noroeste 0 -- -- 73
2019-06-16 16:00:00 21.8 9 Noroeste 18 Noroeste 0 -- -- 70
2019-06-16 15:00:00 21.1 9 Noroeste 17 Noroeste 0 -- -- 68
2019-06-16 14:00:00 20 10 Noroeste 16 Noroeste 0 -- -- 68
2019-06-16 13:00:00 18.9 6 Noroeste 13 Noroeste 0 -- -- 68
2019-06-16 12:00:00 17.2 5 Noroeste 9 Noroeste 0 -- -- 73
2019-06-16 11:00:00 15.4 4 Noroeste 9 Noroeste 0 -- -- 67
2019-06-16 10:00:00 13.6 0 Calma 6 Noroeste 0 -- -- 71
2019-06-16 09:00:00 10 0 Calma 11 Sudeste 0 -- -- 85
2019-06-16 08:00:00 8.2 6 Sudeste 9 Sur 0 -- -- 89
2019-06-16 07:00:00 7.4 3 Sur 6 Sudeste 0 -- -- 90
2019-06-16 06:00:00 7.3 2 Sudeste 6 Este 0 -- -- 90
2019-06-16 05:00:00 7.2 2 Sudeste 6 Sudeste 0 -- -- 89
2019-06-16 04:00:00 7.4 2 Sudeste 6 Sur 0 -- -- 89
2019-06-16 03:00:00 7.6 0 Calma 5 Sur 0 -- -- 87
2019-06-16 02:00:00 7.8 2 Sudeste 11 Sudeste 0 -- -- 87
2019-06-16 01:00:00 8.8 6 Sudeste 11 Sudeste 0 -- -- 84
2019-06-16 00:00:00 10.3 0 Calma 10 Nordeste 0 -- -- 79
2019-06-15 23:00:00 10.3 2 Sudeste 4 Sudeste 0 -- -- 78
2019-06-15 22:00:00 10.6 0 Calma 10 Norte 0 -- -- 78
2019-06-15 21:00:00 10.9 5 Norte 11 Norte 0 -- -- 73
2019-06-15 20:00:00 11.1 5 Noroeste 18 Noroeste 0 -- -- 81
2019-06-15 19:00:00 11.7 9 Noroeste 20 Noroeste 0 -- -- 83
2019-06-15 18:00:00 12.2 10 Noroeste 23 Noroeste 0 -- -- 82
2019-06-15 17:00:00 13.8 9 Noroeste 26 Noroeste 0 -- -- 77
2019-06-15 16:00:00 15.1 13 Noroeste 25 Noroeste 0 -- -- 73
2019-06-15 15:00:00 16.1 9 Noroeste 17 Noroeste 0 -- -- 70
2019-06-15 14:00:00 16.6 9 Noroeste 19 Noroeste 0 -- -- 61
2019-06-15 13:00:00 15.7 5 Noroeste 16 Oeste 0 -- -- 63
2019-06-15 12:00:00 14.6 8 Noroeste 17 Noroeste 0.2 -- -- 71
2019-06-15 11:00:00 14.2 0 Calma 11 Noroeste 0 -- -- 68
2019-06-15 10:00:00 13.2 5 Noroeste 11 Noroeste 0 -- -- 73
2019-06-15 09:00:00 10.2 0 Calma 8 Sudeste 0 -- -- 91
2019-06-15 08:00:00 8.3 4 Sudeste 11 Sudeste 0 -- -- 87
2019-06-15 07:00:00 8.3 4 Sudeste 8 Sudeste 0 -- -- 89
2019-06-15 06:00:00 8.7 2 Sudeste 8 Sudeste 0 -- -- 94
2019-06-15 05:00:00 8.9 0 Calma 5 Sudeste 0 -- -- 95
2019-06-15 04:00:00 8.7 0 Calma 5 Sur 0 -- -- 96
2019-06-15 03:00:00 8.8 2 Este 5 Sudeste 0 -- -- 96
2019-06-15 02:00:00 8.5 2 Sudeste 11 Este 0 -- -- 96
2019-06-15 01:00:00 8.2 4 Sudeste 8 Sudeste 0 -- -- 93
2019-06-15 00:00:00 9.2 4 Sudeste 7 Sudeste 0 -- -- 97
2019-06-14 23:00:00 9.2 0 Calma 5 Nordeste 0 -- -- 97
2019-06-14 22:00:00 10.2 2 Noroeste 5 Noroeste 0 -- -- 99
2019-06-14 21:00:00 10.4 3 Norte 9 Noroeste 0.2 -- -- 99
2019-06-14 20:00:00 10 6 Noroeste 11 Noroeste 0 -- -- 100
2019-06-14 19:00:00 10.2 5 Noroeste 14 Noroeste 0.2 -- -- 100
2019-06-14 18:00:00 10.3 5 Noroeste 13 Noroeste 0.4 -- -- 100
2019-06-14 17:00:00 10.8 4 Noroeste 10 Oeste 0 -- -- 97
2019-06-14 16:00:00 11.2 5 Noroeste 10 Noroeste 0 -- -- 94
2019-06-14 15:00:00 11.5 5 Noroeste 9 Noroeste 0 -- -- 92
2019-06-14 14:00:00 11.6 5 Noroeste 13 Noroeste 0 -- -- 91
2019-06-14 13:00:00 12 8 Noroeste 12 Noroeste 0 -- -- 90
2019-06-14 12:00:00 12 5 Noroeste 10 Noroeste 0 -- -- 85
2019-06-14 11:00:00 11.3 5 Noroeste 10 Noroeste 0 -- -- 92
2019-06-14 10:00:00 10.4 3 Noroeste 7 Norte 0 -- -- 92
2019-06-14 09:00:00 9.2 0 Calma 9 Noroeste 0 -- -- 97
2019-06-14 08:00:00 8.5 3 Sudeste 6 Sur 0 -- -- 99
2019-06-14 07:00:00 6.8 2 Sudeste 6 Este 0 -- -- 98
2019-06-14 06:00:00 6.5 0 Calma 6 Este 0 -- -- 100
2019-06-14 05:00:00 6 2 Sudeste 6 Nordeste 0 -- -- 99
2019-06-14 04:00:00 6 3 Sudeste 6 Sur 0 -- -- 98
2019-06-14 03:00:00 6.1 0 Calma 6 Este 0 -- -- 97
2019-06-14 02:00:00 7 2 Sudeste 6 Sudeste 0 -- -- 97
2019-06-14 01:00:00 8.4 0 Calma 4 Nordeste 0 -- -- 100
2019-06-14 00:00:00 8.9 0 Calma 5 Norte 0 -- -- 100
2019-06-13 23:00:00 8.9 4 Norte 6 Noroeste 0 -- -- 100
2019-06-13 22:00:00 8.9 3 Noroeste 10 Norte 0.2 -- -- 100
2019-06-13 21:00:00 9 5 Noroeste 15 Noroeste 0 -- -- 100
2019-06-13 20:00:00 9.2 7 Noroeste 17 Noroeste 0.6 -- -- 100
2019-06-13 19:00:00 9.6 9 Noroeste 18 Noroeste 0.2 -- -- 100
2019-06-13 18:00:00 10.2 6 Noroeste 12 Oeste 0 -- -- 99
2019-06-13 17:00:00 10.4 5 Noroeste 15 Noroeste 0 -- -- 97
2019-06-13 16:00:00 11.2 7 Noroeste 20 Noroeste 0 -- -- 93
2019-06-13 15:00:00 13.5 10 Noroeste 21 Noroeste 0 -- -- 83
2019-06-13 14:00:00 14.9 11 Noroeste 18 Noroeste 0 -- -- 75
2019-06-13 13:00:00 14.2 9 Noroeste 15 Noroeste 0 -- -- 77
2019-06-13 12:00:00 12.8 8 Norte 17 Noroeste 0 -- -- 78
2019-06-13 11:00:00 11.2 6 Noroeste 12 Noroeste 0 -- -- 80
2019-06-13 10:00:00 10.4 0 Calma 0 Calma 0 -- -- 85
2019-06-13 09:00:00 6.6 0 Calma 0 Calma 0 -- -- 95
2019-06-13 08:00:00 5.5 0 Calma 2 Este 0 -- -- 97
2019-06-13 07:00:00 5.4 0 Calma 2 Sudeste 0 -- -- 95
2019-06-13 06:00:00 5.5 0 Calma 0 Calma 0 -- -- 95
2019-06-13 05:00:00 6.6 0 Calma 0 Calma 0 -- -- 94
2019-06-13 04:00:00 6.8 0 Calma 0 Calma 0 -- -- 93
2019-06-13 03:00:00 7.4 0 Calma 0 Calma 0 -- -- 92
2019-06-13 02:00:00 8 0 Calma 0 Calma 0 -- -- 92
2019-06-13 01:00:00 8.4 0 Calma 0 Calma 0 -- -- 93
2019-06-13 00:00:00 8.5 0 Calma 0 Calma 0 -- -- 92
2019-06-12 23:00:00 8.8 0 Calma 2 Norte 0 -- -- 91
2019-06-12 22:00:00 8.9 3 Norte 9 Norte 0 -- -- 91
2019-06-12 21:00:00 9.2 4 Noroeste 14 Noroeste 0 -- -- 89
2019-06-12 20:00:00 9.6 6 Noroeste 14 Norte 0 -- -- 85
2019-06-12 19:00:00 9.8 7 Noroeste 14 Norte 0 -- -- 82
2019-06-12 18:00:00 10.6 10 Noroeste 16 Noroeste 0 -- -- 81
2019-06-12 17:00:00 12.1 5 Noroeste 18 Noroeste 0 -- -- 75
2019-06-12 16:00:00 11.8 11 Noroeste 22 Noroeste 0 -- -- 77
2019-06-12 15:00:00 12.6 10 Noroeste 21 Noroeste 0 -- -- 69
2019-06-12 14:00:00 13.2 7 Noroeste 15 Noroeste 0 -- -- 66
2019-06-12 13:00:00 11.4 7 Norte 19 Norte 0 -- -- 67
2019-06-12 12:00:00 11.3 10 Norte 18 Norte 0 -- -- 68
2019-06-12 11:00:00 9.7 8 Norte 17 Noroeste 0 -- -- 68
2019-06-12 10:00:00 8.8 8 Norte 30 Norte 0 -- -- 70
2019-06-12 09:00:00 9 10 Norte 22 Norte 0 -- -- 67
2019-06-12 08:00:00 7.8 4 Nordeste 10 Nordeste 0 -- -- 73
2019-06-12 07:00:00 7.8 4 Nordeste 30 Norte 0 -- -- 73
2019-06-12 06:00:00 7.8 11 Norte 24 Norte 0 -- -- 73
2019-06-12 05:00:00 7.6 5 Nordeste 31 Norte 0 -- -- 77
2019-06-12 04:00:00 7.6 8 Norte 23 Norte 0 -- -- 79
2019-06-12 03:00:00 7.7 12 Norte 29 Norte 0 -- -- 79
2019-06-12 02:00:00 7.6 9 Norte 26 Norte 0 -- -- 80
2019-06-12 01:00:00 7.8 10 Noroeste 24 Norte 0 -- -- 85
2019-06-12 00:00:00 7.8 10 Norte 24 Noroeste 0 -- -- 88
2019-06-11 23:00:00 7.8 9 Norte 32 Norte 0 -- -- 93
2019-06-11 22:00:00 7.7 9 Noroeste 28 Noroeste 2.4 -- -- 96
2019-06-11 21:00:00 8.4 11 Noroeste 32 Norte 0.2 -- -- 90
2019-06-11 20:00:00 8.8 10 Noroeste 30 Norte 0 -- -- 87
2019-06-11 19:00:00 9 11 Noroeste 30 Norte 0.4 -- -- 88
2019-06-11 18:00:00 9.6 15 Norte 32 Norte 0.8 -- -- 86
2019-06-11 17:00:00 8.5 10 Noroeste 28 Norte 0.4 -- -- 91
2019-06-11 16:00:00 8.4 15 Noroeste 39 Noroeste 0.2 -- -- 91
2019-06-11 15:00:00 7.4 17 Norte 39 Noroeste 2.8 -- -- 95
2019-06-11 14:00:00 8 9 Noroeste 33 Noroeste 1.4 -- -- 95
2019-06-11 13:00:00 7 17 Norte 30 Noroeste 1.4 -- -- 96
2019-06-11 12:00:00 6.9 9 Norte 24 Norte 0.6 -- -- 95
2019-06-11 11:00:00 6.1 10 Norte 21 Norte 2.4 -- -- 95
2019-06-11 10:00:00 5.8 6 Norte 21 Norte 2.8 -- -- 97
2019-06-11 09:00:00 5.3 2 Sur 9 Sudeste 4.2 -- -- 95
2019-06-11 08:00:00 5.4 6 Sudeste 41 Noroeste 2.4 -- -- 91
2019-06-11 07:00:00 6.6 5 Norte 13 Noroeste 1 -- -- 99
2019-06-11 06:00:00 6.7 11 Noroeste 22 Norte 2.8 -- -- 98
2019-06-11 05:00:00 6.8 11 Norte 25 Norte 3.4 -- -- 98
2019-06-11 04:00:00 6.6 6 Norte 13 Norte 1.8 -- -- 99
2019-06-11 03:00:00 6.7 0 Calma 11 Norte 0.8 -- -- 99
2019-06-11 02:00:00 6.9 5 Noroeste 13 Norte 0.4 -- -- 97
2019-06-11 01:00:00 7.2 4 Noroeste 9 Noroeste 0.2 -- -- 98
2019-06-11 00:00:00 7.4 0 Calma 6 Sudeste 0.2 -- -- 98
2019-06-10 23:00:00 7.3 3 Sudeste 5 Nordeste 1.6 -- -- 97
2019-06-10 22:00:00 7.7 3 Sudeste 6 Noroeste 1 -- -- 94
2019-06-10 21:00:00 8.5 0 Calma 2 Este 0.6 -- -- 92
2019-06-10 20:00:00 9 3 Noroeste 12 Norte 0 -- -- 85
2019-06-10 19:00:00 9.4 6 Norte 14 Norte 0 -- -- 88
2019-06-10 18:00:00 10.1 7 Noroeste 16 Noroeste 0 -- -- 84
2019-06-10 17:00:00 10.8 8 Noroeste 20 Noroeste 0 -- -- 83
2019-06-10 16:00:00 11.8 10 Noroeste 17 Noroeste 0 -- -- 79
2019-06-10 15:00:00 12.8 8 Noroeste 16 Noroeste 0 -- -- 69
2019-06-10 14:00:00 12.4 5 Noroeste 10 Noroeste 0 -- -- 75
2019-06-10 13:00:00 11 2 Oeste 9 Noroeste 0 -- -- 81
2019-06-10 12:00:00 10.2 6 Noroeste 10 Noroeste 0 -- -- 78
2019-06-10 11:00:00 9.6 2 Noroeste 4 Noroeste 0 -- -- 89
2019-06-10 10:00:00 8.5 0 Calma 6 Sudeste 0 -- -- 88
2019-06-10 09:00:00 6.9 2 Este 4 Nordeste 0 -- -- 96
2019-06-10 08:00:00 5.3 2 Sudeste 4 Sur 0 -- -- 99
2019-06-10 07:00:00 5.2 2 Sudeste 5 Sudeste 0 -- -- 96
2019-06-10 06:00:00 6.8 0 Calma 4 Este 0 -- -- 99
2019-06-10 05:00:00 7.3 2 Noroeste 8 Noroeste 0 -- -- 100
2019-06-10 04:00:00 7.8 3 Noroeste 6 Noroeste 0 -- -- 100
2019-06-10 03:00:00 7.9 0 Calma 5 Noroeste 0 -- -- 100
2019-06-10 02:00:00 8 2 Noroeste 7 Noroeste 0 -- -- 100
2019-06-10 01:00:00 8.1 2 Noroeste 4 Noroeste 0.2 -- -- 100
2019-06-10 00:00:00 8 2 Noroeste 12 Noroeste 0.2 -- -- 100
2019-06-09 23:00:00 8.4 6 Noroeste 12 Noroeste 0.8 -- -- 100
2019-06-09 22:00:00 8.3 4 Noroeste 8 Noroeste 0.4 -- -- 100
2019-06-09 21:00:00 8.3 5 Noroeste 13 Noroeste 0.4 -- -- 100
2019-06-09 20:00:00 8.6 8 Noroeste 13 Noroeste 0.2 -- -- 100
2019-06-09 19:00:00 8.8 6 Noroeste 22 Norte 0.2 -- -- 100
2019-06-09 18:00:00 9.5 10 Noroeste 18 Noroeste 0.6 -- -- 100
2019-06-09 17:00:00 10.2 6 Noroeste 15 Norte 0.8 -- -- 100
2019-06-09 16:00:00 10.1 7 Noroeste 17 Noroeste 0.4 -- -- 99
2019-06-09 15:00:00 10.2 9 Noroeste 17 Norte 0 -- -- 98
2019-06-09 14:00:00 11.1 4 Noroeste 10 Noroeste 0 -- -- 92
2019-06-09 13:00:00 11.1 6 Norte 10 Norte 0 -- -- 90
2019-06-09 12:00:00 10.9 2 Noroeste 9 Norte 0 -- -- 92
2019-06-09 11:00:00 11 5 Noroeste 11 Noroeste 0 -- -- 91
2019-06-09 10:00:00 10.6 0 Calma 4 Noroeste 0 -- -- 90
2019-06-09 09:00:00 9.7 0 Calma 4 Norte 0 -- -- 93
2019-06-09 08:00:00 9.1 0 Calma 2 Este 0 -- -- 94
2019-06-09 07:00:00 8.8 0 Calma 3 Noroeste 0 -- -- 95
2019-06-09 06:00:00 8.8 0 Calma 3 Sudeste 0 -- -- 94
2019-06-09 05:00:00 8.7 2 Sudeste 8 Norte 0 -- -- 90
2019-06-09 04:00:00 9 0 Calma 9 Este 0 -- -- 91
2019-06-09 03:00:00 9.3 7 Norte 12 Norte 0 -- -- 94
2019-06-09 02:00:00 9.1 4 Norte 12 Noroeste 0 -- -- 99
2019-06-09 01:00:00 9.2 3 Noroeste 9 Noroeste 0 -- -- 100
2019-06-09 00:00:00 9.3 4 Norte 10 Noroeste 0.2 -- -- 99
2019-06-08 23:00:00 9.4 4 Noroeste 14 Noroeste 0.2 -- -- 98
2019-06-08 22:00:00 9.8 7 Noroeste 13 Noroeste 0 -- -- 97
2019-06-08 21:00:00 10.2 4 Noroeste 10 Noroeste 0 -- -- 94
2019-06-08 20:00:00 10.8 6 Noroeste 18 Noroeste 0 -- -- 90
2019-06-08 19:00:00 12.7 11 Norte 19 Noroeste 0 -- -- 85
2019-06-08 18:00:00 13.6 6 Noroeste 18 Nordeste 0 -- -- 80
2019-06-08 17:00:00 13.6 6 Oeste 25 Norte 0 -- -- 79
2019-06-08 16:00:00 15.2 8 Noroeste 19 Noroeste 0 -- -- 72
2019-06-08 15:00:00 16.5 8 Noroeste 18 Noroeste 0 -- -- 70
2019-06-08 14:00:00 16.3 7 Noroeste 15 Noroeste 0 -- -- 65
2019-06-08 13:00:00 14.9 7 Norte 18 Noroeste 0 -- -- 66
2019-06-08 12:00:00 13.5 9 Noroeste 14 Noroeste 0 -- -- 71
2019-06-08 11:00:00 11.2 7 Noroeste 11 Norte 0 -- -- 79
2019-06-08 10:00:00 10.1 2 Noroeste 5 Noroeste 0 -- -- 83
2019-06-08 09:00:00 7.9 2 Sudeste 5 Sudeste 0 -- -- 88
2019-06-08 08:00:00 7.6 0 Calma 3 Sur 0 -- -- 90
2019-06-08 07:00:00 7.2 0 Calma 8 Sudeste 0 -- -- 90
2019-06-08 06:00:00 7 2 Sur 10 Sudeste 0 -- -- 90
2019-06-08 05:00:00 7.2 4 Sudeste 7 Sudeste 0 -- -- 88
2019-06-08 04:00:00 7.8 2 Sudeste 3 Sudeste 0 -- -- 90
2019-06-08 03:00:00 7.3 0 Calma 5 Sudeste 0 -- -- 91
2019-06-08 02:00:00 7.8 0 Calma 5 Sudeste 0 -- -- 89
2019-06-08 01:00:00 8.3 0 Calma 2 Nordeste 0 -- -- 86
2019-06-08 00:00:00 8.4 0 Calma 10 Noroeste 0 -- -- 85
2019-06-07 23:00:00 8.7 0 Calma 2 Norte 0 -- -- 86
2019-06-07 22:00:00 8.8 0 Calma 10 Norte 0 -- -- 81
2019-06-07 21:00:00 9.1 7 Norte 15 Noroeste 0 -- -- 78
2019-06-07 20:00:00 9.4 9 Norte 20 Noroeste 0 -- -- 73
2019-06-07 19:00:00 9.6 6 Noroeste 20 Noroeste 0 -- -- 78
2019-06-07 18:00:00 9.8 5 Noroeste 19 Noroeste 0.2 -- -- 79
2019-06-07 17:00:00 10.2 8 Norte 21 Noroeste 0 -- -- 78
2019-06-07 16:00:00 11.6 9 Noroeste 22 Noroeste 0 -- -- 67
2019-06-07 15:00:00 12.8 12 Noroeste 25 Noroeste 0 -- -- 66
2019-06-07 14:00:00 13 12 Noroeste 25 Norte 0 -- -- 57
2019-06-07 13:00:00 12.7 11 Noroeste 22 Noroeste 0 -- -- 56
2019-06-07 12:00:00 12.8 5 Oeste 30 Sudeste 0 -- -- 55
2019-06-07 11:00:00 12.7 9 Noroeste 22 Noroeste 0 -- -- 57
2019-06-07 10:00:00 11.7 8 Sudeste 25 Sudeste 0 -- -- 55
2019-06-07 09:00:00 9.9 8 Sudeste 24 Sudeste 0 -- -- 59
2019-06-07 08:00:00 9 6 Sudeste 26 Sudeste 0 -- -- 61
2019-06-07 07:00:00 9.4 14 Este 41 Sudeste 0 -- -- 62
2019-06-07 06:00:00 9.2 20 Sudeste 45 Sur 0 -- -- 65
2019-06-07 05:00:00 9.7 25 Sudeste 49 Sudeste 0 -- -- 63
2019-06-07 04:00:00 9.8 18 Sudeste 50 Sudeste 0 -- -- 69
2019-06-07 03:00:00 10.2 24 Sudeste 51 Sudeste 0 -- -- 71
2019-06-07 02:00:00 10.9 15 Sudeste 47 Sudeste 0 -- -- 65
2019-06-07 01:00:00 10.4 31 Sudeste 75 Este 0.8 -- -- 64
2019-06-07 00:00:00 12.3 24 Sudeste 76 Sudeste 0.4 -- -- 71
2019-06-06 23:00:00 15.1 13 Sudeste 50 Sudeste 0 -- -- 62
2019-06-06 22:00:00 14 12 Este 48 Sudeste 0.4 -- -- 71
2019-06-06 21:00:00 17.7 15 Sur 50 Sudeste 0 -- -- 48
2019-06-06 20:00:00 20 12 Este 54 Sur 0 -- -- 35
2019-06-06 19:00:00 19.9 17 Sudeste 47 Este 0 -- -- 33
2019-06-06 18:00:00 19.6 15 Sudeste 51 Sur 0 -- -- 34
2019-06-06 17:00:00 18.8 23 Sur 55 Sudeste 0 -- -- 36
2019-06-06 16:00:00 19.3 13 Sur 51 Sur 0 -- -- 41
2019-06-06 15:00:00 16.8 10 Oeste 37 Sudeste 0 -- -- 45
2019-06-06 14:00:00 16.4 15 Sudeste 44 Sur 0 -- -- 48
2019-06-06 13:00:00 15.1 18 Sur 40 Sur 0 -- -- 50
2019-06-06 12:00:00 14.1 11 Sudeste 29 Sudeste 0 -- -- 54
2019-06-06 11:00:00 12.7 16 Sudeste 30 Sudeste 0 -- -- 53
2019-06-06 10:00:00 11.9 11 Sudeste 25 Este 0 -- -- 56
2019-06-06 09:00:00 8.3 2 Sudeste 5 Este 0 -- -- 76
2019-06-06 08:00:00 6 0 Calma 8 Sur 0 -- -- 86
2019-06-06 07:00:00 5.7 3 Este 6 Sudeste 0 -- -- 87
2019-06-06 06:00:00 5.8 2 Sudeste 6 Sudeste 0 -- -- 89
2019-06-06 05:00:00 6.5 0 Calma 5 Sur 0 -- -- 91
2019-06-06 04:00:00 6.6 0 Calma 4 Sur 0 -- -- 91
2019-06-06 03:00:00 7 2 Este 6 Sudeste 0 -- -- 90
2019-06-06 02:00:00 7.3 2 Sudeste 4 Sudeste 0 -- -- 92
2019-06-06 01:00:00 7.4 0 Calma 5 Sur 0.2 -- -- 90
2019-06-06 00:00:00 7.7 3 Sudeste 7 Sudeste 0 -- -- 88
2019-06-05 23:00:00 7.6 3 Sudeste 6 Este 0 -- -- 82
2019-06-05 22:00:00 7.8 3 Sudeste 8 Sur 0 -- -- 82
2019-06-05 21:00:00 8.3 0 Calma 6 Este 0 -- -- 85
2019-06-05 20:00:00 8.5 3 Sur 9 Sur 0 -- -- 77
2019-06-05 19:00:00 8.7 0 Calma 10 Norte 0 -- -- 84
2019-06-05 18:00:00 8 5 Este 26 Norte 0.4 -- -- 87
2019-06-05 17:00:00 9.7 9 Noroeste 27 Noroeste 0 -- -- 79
2019-06-05 16:00:00 11.8 9 Noroeste 22 Noroeste 0 -- -- 77
2019-06-05 15:00:00 8.8 9 Noroeste 33 Noroeste 0 -- -- 88
2019-06-05 14:00:00 9.2 12 Noroeste 29 Norte 0.2 -- -- 87
2019-06-05 13:00:00 9.4 12 Noroeste 28 Noroeste 1.2 -- -- 90
2019-06-05 12:00:00 8.3 12 Norte 33 Norte 0.2 -- -- 94
2019-06-05 11:00:00 8.1 18 Norte 37 Noroeste 1 -- -- 94
2019-06-05 10:00:00 7.8 11 Norte 22 Norte 1 -- -- 96
2019-06-05 09:00:00 7.8 9 Noroeste 19 Noroeste 0.2 -- -- 96
2019-06-05 08:00:00 7.8 9 Noroeste 21 Noroeste 2.4 -- -- 97
2019-06-05 07:00:00 7.8 0 Calma 5 Este 4 -- -- 99
2019-06-05 06:00:00 7.8 0 Calma 4 Oeste 4 -- -- 99
2019-06-05 05:00:00 8 2 Nordeste 9 Norte 3.6 -- -- 97
2019-06-05 04:00:00 8.2 0 Calma 4 Nordeste 1.4 -- -- 98
2019-06-05 03:00:00 8.3 2 Este 8 Sudeste 1 -- -- 96
2019-06-05 02:00:00 8.5 0 Calma 7 Sudeste 1.4 -- -- 96
2019-06-05 01:00:00 8.5 2 Sur 3 Sudeste 2.8 -- -- 98
2019-06-05 00:00:00 8.7 0 Calma 4 Noroeste 2.2 -- -- 98
2019-06-04 23:00:00 8.9 0 Calma 6 Oeste 0.6 -- -- 96
2019-06-04 22:00:00 9.4 2 Sudeste 5 Sudeste 0.6 -- -- 98
2019-06-04 21:00:00 9.7 0 Calma 3 Sur 0.2 -- -- 97
2019-06-04 20:00:00 9.7 2 Noroeste 6 Norte 0 -- -- 97
2019-06-04 19:00:00 9.7 3 Noroeste 24 Noroeste 0.4 -- -- 95
2019-06-04 18:00:00 10.1 5 Noroeste 14 Norte 0.4 -- -- 97
2019-06-04 17:00:00 10.4 9 Norte 19 Norte 0.4 -- -- 96
2019-06-04 16:00:00 11.4 9 Norte 39 Noroeste 0 -- -- 95
2019-06-04 15:00:00 18.9 14 Noroeste 37 Sudeste 0 -- -- 78
2019-06-04 14:00:00 21.2 14 Sudeste 37 Sudeste 0 -- -- 51
2019-06-04 13:00:00 20.9 8 Sudeste 22 Norte 0 -- -- 54
2019-06-04 12:00:00 20.1 9 Nordeste 27 Noroeste 0 -- -- 53
2019-06-04 11:00:00 19.6 12 Noroeste 27 Noroeste 0 -- -- 49
2019-06-04 10:00:00 19.4 10 Este 23 Este 0 -- -- 41
2019-06-04 09:00:00 15.4 4 Norte 18 Este 0 -- -- 69
2019-06-04 08:00:00 14.2 4 Norte 15 Norte 0 -- -- 68
2019-06-04 07:00:00 12.4 6 Noroeste 28 Este 0 -- -- 92
2019-06-04 06:00:00 12.6 3 Sur 14 Norte 0 -- -- 91
2019-06-04 05:00:00 16.6 7 Norte 27 Sudeste 0 -- -- 67
2019-06-04 04:00:00 16.8 4 Nordeste 17 Sudeste 0 -- -- 66
2019-06-04 03:00:00 12.2 4 Nordeste 10 Nordeste 0 -- -- 84
2019-06-04 02:00:00 12.1 0 Calma 6 Sudeste 0 -- -- 85
2019-06-04 01:00:00 12.7 0 Calma 9 Sudeste 0 -- -- 87
2019-06-04 00:00:00 14.4 5 Sudeste 8 Sudeste 0 -- -- 97
2019-06-03 23:00:00 15 5 Noroeste 9 Noroeste 0 -- -- 97
2019-06-03 22:00:00 15.8 2 Noroeste 7 Norte 0 -- -- 95
2019-06-03 21:00:00 16.2 0 Calma 7 Noroeste 0 -- -- 95
2019-06-03 20:00:00 17 3 Noroeste 7 Noroeste 0 -- -- 91
2019-06-03 19:00:00 17.2 4 Noroeste 12 Noroeste 0 -- -- 88
2019-06-03 18:00:00 17.9 6 Noroeste 14 Noroeste 0 -- -- 86
2019-06-03 17:00:00 18.5 10 Noroeste 17 Noroeste 0 -- -- 81
2019-06-03 16:00:00 20.3 9 Noroeste 20 Noroeste 0 -- -- 77
2019-06-03 15:00:00 20.8 10 Noroeste 16 Noroeste 0 -- -- 74
2019-06-03 14:00:00 20.1 9 Noroeste 16 Noroeste 0 -- -- 74
2019-06-03 13:00:00 19 6 Noroeste 16 Noroeste 0 -- -- 71
2019-06-03 12:00:00 17.4 8 Noroeste 15 Norte 0 -- -- 77
2019-06-03 11:00:00 17.5 5 Norte 12 Noroeste 0 -- -- 75
2019-06-03 10:00:00 14.7 4 Norte 8 Noroeste 0 -- -- 82
2019-06-03 09:00:00 12.8 2 Nordeste 12 Noroeste 0 -- -- 90
2019-06-03 08:00:00 12.5 3 Sudeste 11 Noroeste 0 -- -- 88
2019-06-03 07:00:00 13.1 5 Este 13 Este 0 -- -- 83
2019-06-03 06:00:00 13 3 Noroeste 13 Este 0 -- -- 83
2019-06-03 05:00:00 12.5 8 Sudeste 12 Sudeste 0 -- -- 88
2019-06-03 04:00:00 12.5 3 Sudeste 8 Sudeste 0 -- -- 90
2019-06-03 03:00:00 12.5 0 Calma 8 Sudeste 0 -- -- 90
2019-06-03 02:00:00 12.8 6 Este 12 Sudeste 0 -- -- 88
2019-06-03 01:00:00 12.8 3 Este 6 Este 0 -- -- 91
2019-06-03 00:00:00 13.1 3 Sudeste 5 Sur 0 -- -- 90
2019-06-02 23:00:00 13.7 2 Este 5 Sudeste 0 -- -- 86
2019-06-02 22:00:00 14.4 3 Este 9 Sudeste 0 -- -- 81
2019-06-02 21:00:00 15.5 2 Sudeste 7 Noroeste 0 -- -- 77
2019-06-02 20:00:00 17.5 3 Noroeste 13 Noroeste 0 -- -- 68
2019-06-02 19:00:00 18.7 2 Noroeste 16 Noroeste 0 -- -- 66
2019-06-02 18:00:00 20.2 7 Noroeste 16 Oeste 0 -- -- 66
2019-06-02 17:00:00 22.9 8 Noroeste 14 Noroeste 0 -- -- 61
2019-06-02 16:00:00 22.6 7 Noroeste 18 Norte 0 -- -- 63
2019-06-02 15:00:00 23.1 10 Noroeste 22 Noroeste 0 -- -- 61
2019-06-02 14:00:00 24.5 11 Noroeste 22 Noroeste 0 -- -- 61
2019-06-02 13:00:00 25.2 11 Noroeste 18 Noroeste 0 -- -- 55
2019-06-02 12:00:00 23.9 5 Noroeste 10 Noroeste 0 -- -- 53
2019-06-02 11:00:00 22.6 4 Noroeste 8 Noroeste 0 -- -- 52
2019-06-02 10:00:00 21.8 0 Calma 4 Noroeste 0 -- -- 47
2019-06-02 09:00:00 17.5 2 Este 8 Sudeste 0 -- -- 62
2019-06-02 08:00:00 15.9 3 Este 8 Sudeste 0 -- -- 65
2019-06-02 07:00:00 15.9 2 Sudeste 11 Sudeste 0 -- -- 58
2019-06-02 06:00:00 16.6 5 Sudeste 13 Sudeste 0 -- -- 55
2019-06-02 05:00:00 17.2 8 Sudeste 16 Sudeste 0 -- -- 51
2019-06-02 04:00:00 16.8 5 Sur 13 Sudeste 0 -- -- 59
2019-06-02 03:00:00 16 6 Sudeste 10 Este 0 -- -- 72
2019-06-02 02:00:00 16.5 0 Calma 13 Sudeste 0 -- -- 79
2019-06-02 01:00:00 16.2 0 Calma 6 Sudeste 0 -- -- 86
2019-06-02 00:00:00 16.6 3 Sudeste 8 Este 0 -- -- 86
2019-06-01 23:00:00 17.6 3 Sudeste 8 Sudeste 0 -- -- 83
2019-06-01 22:00:00 19.2 0 Calma 6 Sur 0 -- -- 78
2019-06-01 21:00:00 23.3 0 Calma 9 Oeste 0 -- -- 68
2019-06-01 20:00:00 25.5 5 Noroeste 14 Norte 0 -- -- 58
2019-06-01 19:00:00 26.5 8 Noroeste 19 Noroeste 0 -- -- 59
2019-06-01 18:00:00 26.6 13 Noroeste 19 Norte 0 -- -- 60
2019-06-01 17:00:00 28.5 11 Noroeste 18 Noroeste 0 -- -- 58
2019-06-01 16:00:00 29.1 10 Noroeste 17 Noroeste 0 -- -- 47
2019-06-01 15:00:00 29.5 6 Noroeste 16 Noroeste 0 -- -- 37
2019-06-01 14:00:00 29.4 6 Oeste 14 Noroeste 0 -- -- 41
2019-06-01 13:00:00 29.1 2 Oeste 9 Sur 0 -- -- 34
2019-06-01 12:00:00 28.5 4 Este 7 Sudeste 0 -- -- 31
2019-06-01 11:00:00 27.2 4 Sudeste 17 Sudeste 0 -- -- 33
2019-06-01 10:00:00 24.6 9 Este 17 Este 0 -- -- 39
2019-06-01 09:00:00 21.5 8 Sudeste 15 Este 0 -- -- 42
2019-06-01 08:00:00 20.2 8 Sudeste 13 Sudeste 0 -- -- 44
2019-06-01 07:00:00 19.9 7 Sudeste 16 Sudeste 0 -- -- 43
2019-06-01 06:00:00 19.6 6 Sudeste 16 Sur 0 -- -- 46
2019-06-01 05:00:00 18.9 5 Sudeste 12 Este 0 -- -- 47
2019-06-01 04:00:00 19.5 6 Sudeste 14 Sudeste 0 -- -- 54
2019-06-01 03:00:00 18 4 Sudeste 9 Este 0 -- -- 63
2019-06-01 02:00:00 17.5 4 Sudeste 8 Este 0 -- -- 68
2019-06-01 01:00:00 17.5 3 Sudeste 9 Sudeste 0 -- -- 70
2019-06-01 00:00:00 17.3 0 Calma 6 Este 0 -- -- 72
2019-05-31 23:00:00 18.4 3 Sudeste 9 Sudeste 0 -- -- 68
2019-05-31 22:00:00 18.8 3 Sur 7 Sudeste 0 -- -- 75
2019-05-31 21:00:00 22.2 3 Sur 9 Sur 0 -- -- 64
2019-05-31 20:00:00 27 3 Oeste 12 Noroeste 0 -- -- 50
2019-05-31 19:00:00 27 8 Noroeste 13 Noroeste 0 -- -- 50
2019-05-31 18:00:00 27 8 Noroeste 16 Noroeste 0 -- -- 53
2019-05-31 17:00:00 26.8 10 Noroeste 18 Noroeste 0 -- -- 57
2019-05-31 16:00:00 26.9 9 Noroeste 17 Noroeste 0 -- -- 47
2019-05-31 15:00:00 26.6 8 Noroeste 14 Noroeste 0 -- -- 49
2019-05-31 14:00:00 25.7 8 Noroeste 15 Norte 0 -- -- 43
2019-05-31 13:00:00 25 8 Noroeste 12 Noroeste 0 -- -- 48
2019-05-31 12:00:00 24 8 Noroeste 12 Norte 0 -- -- 46
2019-05-31 11:00:00 22.8 4 Noroeste 6 Noroeste 0 -- -- 43
2019-05-31 10:00:00 20.9 2 Norte 4 Noroeste 0 -- -- 43
2019-05-31 09:00:00 16 0 Calma 8 Sudeste 0 -- -- 55
2019-05-31 08:00:00 13.9 2 Sudeste 7 Sur 0 -- -- 58
2019-05-31 07:00:00 13.4 3 Sur 7 Sur 0 -- -- 60
2019-05-31 06:00:00 13.3 3 Sudeste 7 Sur 0 -- -- 63
2019-05-31 05:00:00 13.7 3 Sudeste 10 Sudeste 0 -- -- 62
2019-05-31 04:00:00 13.6 3 Sur 9 Sudeste 0 -- -- 64
2019-05-31 03:00:00 14 3 Sudeste 10 Sudeste 0 -- -- 62
2019-05-31 02:00:00 14.3 2 Sudeste 11 Sudeste 0 -- -- 67
2019-05-31 01:00:00 15.3 4 Sudeste 10 Sur 0 -- -- 65
2019-05-31 00:00:00 15.1 4 Sudeste 14 Sur 0 -- -- 69
2019-05-30 23:00:00 15.1 0 Calma 9 Sudeste 0 -- -- 74
2019-05-30 22:00:00 16.7 3 Este 8 Sudeste 0 -- -- 78
2019-05-30 21:00:00 20.5 2 Sudoeste 10 Noroeste 0 -- -- 67
2019-05-30 20:00:00 22.4 8 Noroeste 15 Norte 0 -- -- 63
2019-05-30 19:00:00 23.7 9 Noroeste 21 Noroeste 0 -- -- 59
2019-05-30 18:00:00 24.5 10 Noroeste 19 Noroeste 0 -- -- 55
2019-05-30 17:00:00 24.4 11 Noroeste 19 Noroeste 0 -- -- 57
2019-05-30 16:00:00 24.1 8 Noroeste 15 Noroeste 0 -- -- 61
2019-05-30 15:00:00 23 8 Noroeste 17 Noroeste 0 -- -- 60
2019-05-30 14:00:00 21.8 10 Noroeste 17 Noroeste 0 -- -- 59
2019-05-30 13:00:00 20.9 7 Noroeste 14 Noroeste 0 -- -- 57
2019-05-30 12:00:00 19.4 8 Norte 15 Norte 0 -- -- 65
2019-05-30 11:00:00 18.7 4 Noroeste 9 Norte 0 -- -- 63
2019-05-30 10:00:00 16.7 3 Noroeste 9 Este 0 -- -- 65
2019-05-30 09:00:00 12.5 3 Este 10 Sudeste 0 -- -- 81
2019-05-30 08:00:00 11.1 5 Sudeste 9 Sudeste 0 -- -- 82
2019-05-30 07:00:00 10.4 3 Sur 12 Sudeste 0 -- -- 83
2019-05-30 06:00:00 10.1 3 Sudeste 8 Sudeste 0 -- -- 86
2019-05-30 05:00:00 9.5 3 Sudeste 6 Sudeste 0 -- -- 88
2019-05-30 04:00:00 9.5 2 Sudeste 6 Sudeste 0 -- -- 87
2019-05-30 03:00:00 9.9 2 Sudeste 8 Sur 0 -- -- 85
2019-05-30 02:00:00 9.5 3 Sudeste 8 Sudeste 0 -- -- 86
2019-05-30 01:00:00 9.2 0 Calma 6 Sudeste 0 -- -- 89
2019-05-30 00:00:00 9.8 3 Sudeste 5 Sudeste 0 -- -- 89
2019-05-29 23:00:00 10.6 2 Sudeste 9 Sur 0 -- -- 89
2019-05-29 22:00:00 11.3 3 Sudeste 8 Sudeste 0 -- -- 91
2019-05-29 21:00:00 14 0 Calma 5 Oeste 0 -- -- 83
2019-05-29 20:00:00 14.4 3 Noroeste 8 Norte 0 -- -- 81
2019-05-29 19:00:00 14.8 0 Calma 10 Noroeste 0 -- -- 82
2019-05-29 18:00:00 16.3 5 Noroeste 15 Noroeste 0 -- -- 74
2019-05-29 17:00:00 16.6 5 Noroeste 12 Oeste 0 -- -- 70
2019-05-29 16:00:00 14.4 3 Sudeste 9 Noroeste 0 -- -- 80
2019-05-29 15:00:00 13.1 7 Noroeste 12 Noroeste 0 -- -- 85
2019-05-29 14:00:00 12 8 Noroeste 12 Noroeste 0 -- -- 88
2019-05-29 13:00:00 10.6 3 Noroeste 8 Noroeste 0 -- -- 96
2019-05-29 12:00:00 9.7 5 Noroeste 11 Noroeste 0.4 -- -- 100
2019-05-29 11:00:00 9.1 5 Norte 10 Noroeste 0.8 -- -- 100
2019-05-29 10:00:00 8.7 0 Calma 4 Sudeste 1.2 -- -- 99
2019-05-29 09:00:00 8.1 0 Calma 4 Sur 0.2 -- -- 96
2019-05-29 08:00:00 8.1 0 Calma 8 Noroeste 0 -- -- 95
2019-05-29 07:00:00 8 0 Calma 4 Nordeste 0 -- -- 93
2019-05-29 06:00:00 8.1 0 Calma 8 Nordeste 0 -- -- 91
2019-05-29 05:00:00 8 0 Calma 6 Norte 0 -- -- 95
2019-05-29 04:00:00 8.1 0 Calma 7 Norte 0 -- -- 94
2019-05-29 03:00:00 8.3 4 Norte 20 Norte 0 -- -- 92
2019-05-29 02:00:00 8.3 9 Norte 19 Norte 0.2 -- -- 93
2019-05-29 01:00:00 8.4 7 Noroeste 18 Norte 0 -- -- 92
2019-05-29 00:00:00 8.5 6 Norte 23 Norte 0 -- -- 91
2019-05-28 23:00:00 8.5 5 Noroeste 21 Norte 0 -- -- 91
2019-05-28 22:00:00 8.8 8 Norte 21 Norte 0 -- -- 88
2019-05-28 21:00:00 9.2 10 Noroeste 26 Noroeste 0 -- -- 88
2019-05-28 20:00:00 9.7 9 Noroeste 24 Norte 0 -- -- 88
2019-05-28 19:00:00 10.2 12 Noroeste 33 Norte 0 -- -- 83
2019-05-28 18:00:00 10.4 12 Noroeste 28 Noroeste 0 -- -- 84
2019-05-28 17:00:00 10.9 13 Noroeste 32 Norte 0 -- -- 83
2019-05-28 16:00:00 10.7 14 Noroeste 31 Noroeste 0 -- -- 85
2019-05-28 15:00:00 9.6 12 Noroeste 32 Noroeste 0 -- -- 90
2019-05-28 14:00:00 9.6 15 Noroeste 27 Noroeste 0 -- -- 89
2019-05-28 13:00:00 9.4 14 Noroeste 29 Noroeste 0 -- -- 89
2019-05-28 12:00:00 9.8 12 Norte 30 Norte 0 -- -- 84
2019-05-28 11:00:00 8.7 16 Noroeste 28 Noroeste 0 -- -- 91
2019-05-28 10:00:00 8 11 Noroeste 31 Norte 0 -- -- 95
2019-05-28 09:00:00 8 16 Noroeste 31 Norte 0 -- -- 94
2019-05-28 08:00:00 8.1 15 Norte 30 Noroeste 0 -- -- 93
2019-05-28 07:00:00 7.7 9 Noroeste 23 Norte 0.2 -- -- 96
2019-05-28 06:00:00 7.9 10 Norte 22 Noroeste 0.2 -- -- 96
2019-05-28 05:00:00 7.8 6 Noroeste 14 Noroeste 0 -- -- 96
2019-05-28 04:00:00 7.8 3 Noroeste 25 Noroeste 0 -- -- 96
2019-05-28 03:00:00 8.1 10 Norte 20 Noroeste 0 -- -- 95
2019-05-28 02:00:00 8.2 8 Norte 17 Norte 0 -- -- 94
2019-05-28 01:00:00 8.4 9 Noroeste 18 Norte 0 -- -- 98
2019-05-28 00:00:00 8.6 5 Noroeste 28 Norte 0 -- -- 98
2019-05-27 23:00:00 9 6 Noroeste 20 Noroeste 0.4 -- -- 99
2019-05-27 22:00:00 9.2 5 Noroeste 21 Norte 0 -- -- 99
2019-05-27 21:00:00 9.4 13 Norte 24 Norte 0.6 -- -- 98
2019-05-27 20:00:00 9.8 10 Noroeste 28 Norte 0.6 -- -- 98
2019-05-27 19:00:00 10.2 10 Noroeste 30 Norte 0.4 -- -- 99
2019-05-27 18:00:00 11.1 10 Noroeste 28 Noroeste 0.6 -- -- 99
2019-05-27 17:00:00 11.4 12 Noroeste 23 Noroeste 0.6 -- -- 99
2019-05-27 16:00:00 11.7 12 Noroeste 28 Norte 0.8 -- -- 98
2019-05-27 15:00:00 12.1 11 Norte 24 Noroeste 1.2 -- -- 99
2019-05-27 14:00:00 12.6 8 Noroeste 13 Noroeste 0.6 -- -- 99
2019-05-27 13:00:00 12.1 2 Noroeste 5 Noroeste 0.6 -- -- 97
2019-05-27 12:00:00 11.6 2 Noroeste 6 Noroeste 0.8 -- -- 97
2019-05-27 11:00:00 10.8 0 Calma 4 Noroeste 0 -- -- 96
2019-05-27 10:00:00 10.3 3 Noroeste 6 Noroeste 0 -- -- 96
2019-05-27 09:00:00 10.1 0 Calma 5 Este 0 -- -- 97
2019-05-27 08:00:00 9.4 3 Sudeste 6 Sudeste 0 -- -- 98
2019-05-27 07:00:00 9 3 Noroeste 6 Noroeste 0 -- -- 100
2019-05-27 06:00:00 8.8 3 Sur 8 Sur 0 -- -- 100
2019-05-27 05:00:00 8.5 0 Calma 4 Sur 0 -- -- 99
2019-05-27 04:00:00 7.8 3 Sudeste 8 Sudeste 0 -- -- 98
2019-05-27 03:00:00 7.9 2 Sur 7 Este 0 -- -- 97
2019-05-27 02:00:00 9.6 3 Este 8 Sudeste 0 -- -- 94
2019-05-27 01:00:00 9.7 5 Sudeste 9 Sudeste 0 -- -- 98
2019-05-27 00:00:00 9.6 2 Sudeste 5 Sur 0 -- -- 98